METAR Luftfahrt Wetterdaten     LSZH Zürich Airport
Temperatur
0°C Temperatur
-4°C Taupunkt
75% Feuchtigkeit



Wind
2 KM/h
1 MPS
0 M/S
1 KTS



Kein Wind
Nord
Aktuelle Wetterlage

Teilweise bewölkt Teilweise bewölkt
Luftdruck 1029.92 (hPa) - 30.41 (inHg)
Sichtweite 6.2 (Meile) - 10 (Km)
Flughafen
Flughafen Code LSZH

Position : Zürich Airport
Entfernung: 60 (Km)

Metar:
LSZH 202220Z VRB01KT 9999 FEW060 BKN070 M00/M04 Q1030 NOSIG

Zeit: 20-01-2022 23:20 CET